createdAt,value
2018-01-13T00:02:20.656Z,64.95
2018-01-13T00:04:51.795Z,65.20
2018-01-13T00:07:23.056Z,65.50
2018-01-13T00:09:54.149Z,65.59
2018-01-13T00:12:25.241Z,65.24
2018-01-13T00:14:56.353Z,65.01
2018-01-13T00:17:27.416Z,65.13
2018-01-13T00:19:58.534Z,65.20
2018-01-13T00:22:37.618Z,65.24
2018-01-13T00:25:09.837Z,65.27
2018-01-13T00:27:40.945Z,65.53
2018-01-13T00:30:12.281Z,65.86
2018-01-13T00:32:43.532Z,66.21
2018-01-13T00:35:14.623Z,66.29
2018-01-13T00:37:45.695Z,66.84
2018-01-13T00:40:16.864Z,66.76
2018-01-13T00:42:48.325Z,66.70
2018-01-13T00:45:19.461Z,66.51
2018-01-13T00:47:50.617Z,66.65
2018-01-13T00:50:22.221Z,66.94
2018-01-13T00:52:53.898Z,67.04
2018-01-13T00:55:25.005Z,67.12
2018-01-13T00:57:57.331Z,67.40
2018-01-13T01:00:28.477Z,67.73
2018-01-13T01:02:59.751Z,67.99
2018-01-13T01:05:30.838Z,68.15
2018-01-13T01:08:02.018Z,68.18
2018-01-13T01:10:33.294Z,68.22
2018-01-13T01:13:04.425Z,68.18
2018-01-13T01:15:35.573Z,68.29
2018-01-13T01:18:06.682Z,68.34
2018-01-13T01:20:38.293Z,68.04
2018-01-13T01:23:09.541Z,67.73
2018-01-13T01:25:41.653Z,67.72
2018-01-13T01:28:12.748Z,67.50
2018-01-13T01:30:43.838Z,67.52
2018-01-13T01:33:15.138Z,67.71
2018-01-13T01:35:46.243Z,68.01
2018-01-13T01:38:17.337Z,68.19
2018-01-13T01:40:48.433Z,68.17
2018-01-13T01:43:19.626Z,68.25
2018-01-13T01:45:50.881Z,67.89
2018-01-13T01:48:26.026Z,67.81
2018-01-13T01:50:57.129Z,67.66
2018-01-13T01:53:28.412Z,67.86
2018-01-13T01:55:59.496Z,68.24
2018-01-13T01:58:30.717Z,68.82
2018-01-13T02:01:01.833Z,68.97
2018-01-13T02:03:32.917Z,68.82
2018-01-13T02:06:04.008Z,69.05
2018-01-13T02:08:35.205Z,69.28
2018-01-13T02:11:06.304Z,69.91
2018-01-13T02:13:37.805Z,69.97
2018-01-13T02:16:09.677Z,70.10
2018-01-13T02:18:40.910Z,69.81
2018-01-13T02:21:12.057Z,69.57
2018-01-13T02:23:43.165Z,69.65
2018-01-13T02:26:14.307Z,69.68
2018-01-13T02:28:45.490Z,69.34
2018-01-13T02:31:16.647Z,69.46
2018-01-13T02:33:47.773Z,69.63
2018-01-13T02:36:18.844Z,69.71
2018-01-13T02:38:50.090Z,69.76
2018-01-13T02:41:21.333Z,69.31
2018-01-13T02:43:52.448Z,69.39
2018-01-13T02:46:23.522Z,69.87
2018-01-13T02:48:54.630Z,70.10
2018-01-13T02:51:25.826Z,69.74
2018-01-13T02:53:56.917Z,69.83
2018-01-13T02:56:28.117Z,70.46
2018-01-13T02:58:59.217Z,70.58
2018-01-13T03:01:30.613Z,70.71
2018-01-13T03:04:01.710Z,70.66
2018-01-13T03:06:32.913Z,70.49
2018-01-13T03:09:04.875Z,70.74
2018-01-13T03:11:37.263Z,70.66
2018-01-13T03:14:08.495Z,70.23
2018-01-13T03:16:39.612Z,70.33
2018-01-13T03:19:10.902Z,70.05
2018-01-13T03:21:42.685Z,69.84
2018-01-13T03:24:13.908Z,69.32
2018-01-13T03:26:44.991Z,69.55
2018-01-13T03:29:16.104Z,69.43
2018-01-13T03:31:48.478Z,68.88
2018-01-13T03:34:19.831Z,68.37
2018-01-13T03:36:50.969Z,68.05
2018-01-13T03:39:22.121Z,68.06
2018-01-13T03:41:53.189Z,68.36
2018-01-13T03:44:24.364Z,68.22
2018-01-13T03:46:55.563Z,68.20
2018-01-13T03:49:26.798Z,68.10
2018-01-13T03:51:57.906Z,68.29
2018-01-13T03:54:29.066Z,68.63
2018-01-13T03:57:00.356Z,68.74
2018-01-13T03:59:31.445Z,68.78
2018-01-13T04:02:02.583Z,68.67
2018-01-13T04:04:33.660Z,68.51
2018-01-13T04:07:04.813Z,68.62
2018-01-13T04:09:36.157Z,68.54
2018-01-13T04:12:07.437Z,68.62
2018-01-13T04:14:38.692Z,68.73
2018-01-13T04:17:09.743Z,68.48
2018-01-13T04:19:40.977Z,68.48
2018-01-13T04:22:12.137Z,68.76
2018-01-13T04:24:43.469Z,68.66
2018-01-13T04:27:14.614Z,68.45
2018-01-13T04:29:45.763Z,68.16
2018-01-13T04:32:16.900Z,68.12
2018-01-13T04:34:48.072Z,68.66
2018-01-13T04:37:19.254Z,68.52
2018-01-13T04:39:50.326Z,68.72
2018-01-13T04:42:21.615Z,68.71
2018-01-13T04:44:52.755Z,68.63
2018-01-13T04:47:24.006Z,68.85
2018-01-13T04:49:55.158Z,68.82
2018-01-13T04:52:26.298Z,69.04
2018-01-13T04:54:57.579Z,69.39
2018-01-13T04:57:28.636Z,69.44
2018-01-13T04:59:59.783Z,69.24
2018-01-13T05:02:30.877Z,68.92
2018-01-13T05:05:02.041Z,69.07
2018-01-13T05:07:33.289Z,69.30
2018-01-13T05:10:04.452Z,69.12
2018-01-13T05:12:35.685Z,69.46
2018-01-13T05:15:06.794Z,69.29
2018-01-13T05:17:37.822Z,68.99
2018-01-13T05:20:08.966Z,69.20
2018-01-13T05:22:40.039Z,69.56
2018-01-13T05:25:11.239Z,69.75
2018-01-13T05:27:42.362Z,69.82
2018-01-13T05:30:13.476Z,69.69
2018-01-13T05:32:44.567Z,69.44
2018-01-13T05:35:15.713Z,69.06
2018-01-13T05:37:46.951Z,68.70
2018-01-13T05:40:18.197Z,68.51
2018-01-13T05:42:49.440Z,68.31
2018-01-13T05:45:20.526Z,68.12
2018-01-13T05:47:52.213Z,67.87
2018-01-13T05:50:23.352Z,67.86
2018-01-13T05:52:54.442Z,68.21
2018-01-13T05:55:26.321Z,68.39
2018-01-13T05:57:57.383Z,68.35
2018-01-13T06:00:30.249Z,68.34
2018-01-13T06:03:01.711Z,68.38
2018-01-13T06:05:32.837Z,68.02
2018-01-13T06:08:03.933Z,67.94
2018-01-13T06:10:35.137Z,68.22
2018-01-13T06:13:06.199Z,67.82
2018-01-13T06:15:37.414Z,67.84
2018-01-13T06:18:08.523Z,68.03
2018-01-13T06:20:39.601Z,68.18
2018-01-13T06:23:10.659Z,67.97
2018-01-13T06:25:41.787Z,67.71
2018-01-13T06:28:13.064Z,67.70
2018-01-13T06:30:44.206Z,68.05
2018-01-13T06:33:15.971Z,68.12
2018-01-13T06:35:47.329Z,68.04
2018-01-13T06:38:18.440Z,67.97
2018-01-13T06:40:49.517Z,67.79
2018-01-13T06:43:20.601Z,67.46
2018-01-13T06:45:51.695Z,67.61
2018-01-13T06:48:22.783Z,67.50
2018-01-13T06:50:53.929Z,67.50
2018-01-13T06:53:25.019Z,67.60
2018-01-13T06:55:56.087Z,67.72
2018-01-13T06:58:27.236Z,67.37
2018-01-13T07:00:58.489Z,67.44
2018-01-13T07:03:29.737Z,67.34
2018-01-13T07:06:01.500Z,67.38
2018-01-13T07:08:32.604Z,67.80
2018-01-13T07:11:03.717Z,67.66
2018-01-13T07:13:34.818Z,67.82
2018-01-13T07:16:07.089Z,67.77
2018-01-13T07:18:38.194Z,67.81
2018-01-13T07:21:09.338Z,67.75
2018-01-13T07:23:41.163Z,67.64
2018-01-13T07:26:12.310Z,67.49
2018-01-13T07:28:43.363Z,67.72
2018-01-13T07:31:14.501Z,67.86
2018-01-13T07:33:45.608Z,69.16
2018-01-13T07:36:16.687Z,67.89
2018-01-13T07:38:47.811Z,67.23
2018-01-13T07:41:18.900Z,67.56
2018-01-13T07:43:50.124Z,67.61
2018-01-13T07:46:21.388Z,67.24
2018-01-13T07:48:52.634Z,67.30
2018-01-13T07:51:24.556Z,67.16
2018-01-13T07:53:56.772Z,67.35
2018-01-13T07:56:28.018Z,67.10
2018-01-13T07:58:59.261Z,67.21
2018-01-13T08:01:30.414Z,67.43
2018-01-13T08:04:01.662Z,67.66
2018-01-13T08:06:32.751Z,67.61
2018-01-13T08:09:03.871Z,67.03
2018-01-13T08:11:35.104Z,66.66
2018-01-13T08:16:34.493Z,67.21
2018-01-13T08:19:05.591Z,66.93
2018-01-13T08:21:37.018Z,66.81
2018-01-13T08:24:08.121Z,66.62
2018-01-13T08:26:39.263Z,66.54
2018-01-13T08:29:10.455Z,66.45
2018-01-13T08:31:41.716Z,66.10
2018-01-13T08:34:12.869Z,65.78
2018-01-13T08:36:44.220Z,65.99
2018-01-13T08:39:15.362Z,66.16
2018-01-13T08:41:46.610Z,66.16
2018-01-13T08:44:18.401Z,66.20
2018-01-13T08:46:49.627Z,65.96
2018-01-13T08:49:20.978Z,66.01
2018-01-13T08:51:52.843Z,66.04
2018-01-13T08:54:23.951Z,66.16
2018-01-13T08:56:55.094Z,66.36
2018-01-13T08:59:26.239Z,66.16
2018-01-13T09:02:12.371Z,66.18
2018-01-13T09:04:43.727Z,66.55
2018-01-13T09:07:15.073Z,66.85
2018-01-13T09:09:46.161Z,66.46
2018-01-13T09:12:17.272Z,66.01
2018-01-13T09:14:49.334Z,65.08
2018-01-13T09:17:20.403Z,63.98
2018-01-13T09:19:51.550Z,62.98
2018-01-13T09:22:22.773Z,62.58
2018-01-13T09:24:54.008Z,62.21
2018-01-13T09:27:25.135Z,61.71
2018-01-13T09:29:56.338Z,61.65
2018-01-13T09:32:27.567Z,61.26
2018-01-13T09:34:58.816Z,60.97
2018-01-13T09:37:30.373Z,60.74
2018-01-13T09:40:01.521Z,60.97
2018-01-13T09:42:32.591Z,60.58
2018-01-13T09:45:03.761Z,60.32
2018-01-13T09:47:34.834Z,60.58
2018-01-13T09:50:05.950Z,60.47
2018-01-13T09:52:37.099Z,60.83
2018-01-13T09:55:08.208Z,61.07
2018-01-13T09:57:39.378Z,60.87
2018-01-13T10:00:10.447Z,60.47
2018-01-13T10:02:41.739Z,60.68
2018-01-13T10:05:12.988Z,60.25
2018-01-13T10:07:44.129Z,59.94
2018-01-13T10:10:15.212Z,59.67
2018-01-13T10:12:46.442Z,59.69
2018-01-13T10:15:17.784Z,59.76
2018-01-13T10:17:49.030Z,59.80
2018-01-13T10:20:20.108Z,59.70
2018-01-13T10:22:51.308Z,59.90
2018-01-13T10:25:22.575Z,59.53
2018-01-13T10:27:53.926Z,59.69
2018-01-13T10:30:25.063Z,59.87
2018-01-13T10:32:56.425Z,59.63
2018-01-13T10:35:27.542Z,60.64
2018-01-13T10:37:58.659Z,60.60
2018-01-13T10:40:29.731Z,60.91
2018-01-13T10:43:01.011Z,61.39
2018-01-13T10:45:32.157Z,60.91
2018-01-13T10:48:03.409Z,60.44
2018-01-13T10:50:34.459Z,59.98
2018-01-13T10:53:05.686Z,60.38
2018-01-13T10:55:36.850Z,60.61
2018-01-13T10:58:07.962Z,60.51
2018-01-13T11:00:39.246Z,60.23
2018-01-13T11:03:10.389Z,59.90
2018-01-13T11:05:41.645Z,59.45
2018-01-13T11:08:12.754Z,59.07
2018-01-13T11:10:43.822Z,58.96
2018-01-13T11:13:14.938Z,58.56
2018-01-13T11:15:46.126Z,58.63
2018-01-13T11:18:17.584Z,58.68
2018-01-13T11:20:48.834Z,57.98
2018-01-13T11:23:20.075Z,58.20
2018-01-13T11:25:51.144Z,58.71
2018-01-13T11:28:22.309Z,58.93
2018-01-13T11:30:53.386Z,58.36
2018-01-13T11:33:25.294Z,58.10
2018-01-13T11:35:56.584Z,58.36
2018-01-13T11:38:27.679Z,58.29
2018-01-13T11:40:59.439Z,58.70
2018-01-13T11:43:30.790Z,58.75
2018-01-13T11:46:02.039Z,58.40
2018-01-13T11:48:33.375Z,58.71
2018-01-13T11:51:04.457Z,58.46
2018-01-13T11:53:35.679Z,58.04
2018-01-13T11:56:07.033Z,57.74
2018-01-13T11:58:38.156Z,58.21
2018-01-13T12:01:09.434Z,58.39
2018-01-13T12:03:40.678Z,58.86
2018-01-13T12:09:08.351Z,58.63
2018-01-13T12:11:39.498Z,58.40
2018-01-13T12:14:10.642Z,58.31
2018-01-13T12:17:44.833Z,58.54
2018-01-13T12:20:15.937Z,58.16
2018-01-13T12:22:47.090Z,57.74
2018-01-13T12:25:18.214Z,57.50
2018-01-13T12:27:49.355Z,57.44
2018-01-13T12:30:20.451Z,57.38
2018-01-13T12:32:51.610Z,57.58
2018-01-13T12:35:22.761Z,57.23
2018-01-13T12:37:54.012Z,57.44
2018-01-13T12:40:25.362Z,58.34
2018-01-13T12:42:56.611Z,57.84
2018-01-13T12:45:27.702Z,58.24
2018-01-13T12:47:58.900Z,59.06
2018-01-13T12:50:31.175Z,58.35
2018-01-13T12:53:02.425Z,58.29
2018-01-13T12:55:33.776Z,57.85
2018-01-13T12:58:04.981Z,57.85
2018-01-13T13:00:36.135Z,58.33
2018-01-13T13:03:07.232Z,59.02
2018-01-13T13:05:38.352Z,59.82
2018-01-13T13:08:12.475Z,60.11
2018-01-13T13:10:43.830Z,60.50
2018-01-13T13:13:14.918Z,61.01
2018-01-13T13:15:46.028Z,60.30
2018-01-13T13:18:17.146Z,61.16
2018-01-13T13:20:48.340Z,60.44
2018-01-13T13:23:20.179Z,60.66
2018-01-13T13:25:51.321Z,61.97
2018-01-13T13:28:22.471Z,62.50
2018-01-13T13:30:53.621Z,62.23
2018-01-13T13:33:24.871Z,61.84
2018-01-13T13:35:55.979Z,61.89
2018-01-13T13:38:27.164Z,61.95
2018-01-13T13:40:58.321Z,62.48
2018-01-13T13:43:29.425Z,62.14
2018-01-13T13:46:00.536Z,62.10
2018-01-13T13:48:32.273Z,62.52
2018-01-13T13:51:03.360Z,62.66
2018-01-13T13:53:34.533Z,62.83
2018-01-13T13:56:05.706Z,62.55
2018-01-13T13:58:36.954Z,62.55
2018-01-13T14:01:28.443Z,62.49
2018-01-13T14:03:39.457Z,62.20
2018-01-13T14:06:10.575Z,62.91
2018-01-13T14:08:41.714Z,62.81
2018-01-13T14:11:12.996Z,62.72
2018-01-13T14:13:44.233Z,62.54
2018-01-13T14:16:15.353Z,62.63
2018-01-13T14:18:46.522Z,63.41
2018-01-13T14:21:17.686Z,63.54
2018-01-13T14:23:48.809Z,63.42
2018-01-13T14:26:19.862Z,63.28
2018-01-13T14:28:50.997Z,63.34
2018-01-13T14:31:22.168Z,63.21
2018-01-13T14:33:53.309Z,63.63
2018-01-13T14:36:24.412Z,63.62
2018-01-13T14:38:55.474Z,64.02
2018-01-13T14:41:26.638Z,63.72
2018-01-13T14:43:57.748Z,64.04
2018-01-13T14:46:28.852Z,63.61
2018-01-13T14:49:00.004Z,63.64
2018-01-13T14:51:31.127Z,63.62
2018-01-13T14:54:03.110Z,63.60
2018-01-13T14:56:34.353Z,63.48
2018-01-13T14:59:06.007Z,63.73
2018-01-13T15:01:37.126Z,63.46
2018-01-13T15:04:08.413Z,63.20
2018-01-13T15:06:39.764Z,63.01
2018-01-13T15:09:10.881Z,62.90
2018-01-13T15:11:42.820Z,63.26
2018-01-13T15:14:14.028Z,63.37
2018-01-13T15:16:45.117Z,63.26
2018-01-13T15:19:16.187Z,62.97
2018-01-13T15:21:47.566Z,62.75
2018-01-13T15:24:18.654Z,62.44
2018-01-13T15:26:49.965Z,62.86
2018-01-13T15:29:21.092Z,63.37
2018-01-13T15:31:52.383Z,63.64
2018-01-13T15:36:59.565Z,63.75
2018-01-13T15:41:40.275Z,63.97
2018-01-13T15:44:11.414Z,63.70
2018-01-13T15:46:42.514Z,63.03
2018-01-13T15:49:13.831Z,62.91
2018-01-13T15:51:45.581Z,62.17
2018-01-13T15:54:16.712Z,61.57
2018-01-13T15:56:48.274Z,61.09
2018-01-13T15:59:19.523Z,61.64
2018-01-13T16:01:50.647Z,61.15
2018-01-13T16:04:21.921Z,61.02
2018-01-13T16:06:53.167Z,61.07
2018-01-13T16:09:24.330Z,60.70
2018-01-13T16:11:55.454Z,60.37
2018-01-13T16:14:26.492Z,60.06
2018-01-13T16:16:57.693Z,60.39
2018-01-13T16:19:28.746Z,60.49
2018-01-13T16:21:59.927Z,60.57
2018-01-13T16:24:31.196Z,60.36
2018-01-13T16:27:03.842Z,60.40
2018-01-13T16:29:35.234Z,60.04
2018-01-13T16:32:06.485Z,59.82
2018-01-13T16:34:37.634Z,59.19
2018-01-13T16:37:08.771Z,59.45
2018-01-13T16:39:40.128Z,59.31
2018-01-13T16:42:11.925Z,59.67
2018-01-13T16:44:43.025Z,59.79
2018-01-13T16:47:14.277Z,59.75
2018-01-13T16:49:45.375Z,59.63
2018-01-13T16:52:16.522Z,59.70
2018-01-13T16:54:47.827Z,59.77
2018-01-13T16:57:18.966Z,60.02
2018-01-13T16:59:50.212Z,59.89
2018-01-13T17:02:21.576Z,59.86
2018-01-13T17:04:52.682Z,59.78
2018-01-13T17:07:23.887Z,59.87
2018-01-13T17:09:55.008Z,59.66
2018-01-13T17:12:26.368Z,59.71
2018-01-13T17:14:57.464Z,59.89
2018-01-13T17:17:28.775Z,60.17
2018-01-13T17:19:59.847Z,59.96
2018-01-13T17:22:30.941Z,59.73
2018-01-13T17:25:03.906Z,59.58
2018-01-13T17:27:35.193Z,59.84
2018-01-13T17:30:06.271Z,60.18
2018-01-13T17:32:38.349Z,60.14
2018-01-13T17:35:09.474Z,59.78
2018-01-13T17:37:40.808Z,60.08
2018-01-13T17:40:12.468Z,60.20
2018-01-13T17:42:43.815Z,60.63
2018-01-13T17:45:15.064Z,60.88
2018-01-13T17:47:46.417Z,60.73
2018-01-13T17:50:17.665Z,60.60
2018-01-13T17:52:48.813Z,60.73
2018-01-13T17:55:19.986Z,60.64
2018-01-13T17:57:51.110Z,60.29
2018-01-13T18:00:22.213Z,60.84
2018-01-13T18:02:53.606Z,61.11
2018-01-13T18:05:24.754Z,61.29
2018-01-13T18:07:56.001Z,61.47
2018-01-13T18:10:27.060Z,61.19
2018-01-13T18:12:58.296Z,61.33
2018-01-13T18:15:29.441Z,61.13
2018-01-13T18:18:00.572Z,60.61
2018-01-13T18:20:31.646Z,60.86
2018-01-13T18:23:02.829Z,60.77
2018-01-13T18:25:33.896Z,60.28
2018-01-13T18:28:05.893Z,59.71
2018-01-13T18:30:37.144Z,59.87
2018-01-13T18:33:08.231Z,60.24
2018-01-13T18:35:39.435Z,60.43
2018-01-13T18:38:10.755Z,60.13
2018-01-13T18:40:41.922Z,59.86
2018-01-13T18:43:13.286Z,59.45
2018-01-13T18:45:44.406Z,59.25
2018-01-13T18:48:16.399Z,59.39
2018-01-13T18:50:47.435Z,59.06
2018-01-13T18:53:18.694Z,58.69
2018-01-13T18:55:50.044Z,58.19
2018-01-13T18:58:21.123Z,58.20
2018-01-13T19:00:52.219Z,57.92
2018-01-13T19:03:23.279Z,58.05
2018-01-13T19:05:54.412Z,58.07
2018-01-13T19:08:25.489Z,57.93
2018-01-13T19:10:56.611Z,57.73
2018-01-13T19:13:27.869Z,57.78
2018-01-13T19:15:59.122Z,58.01
2018-01-13T19:18:30.201Z,58.30
2018-01-13T19:21:01.504Z,58.58
2018-01-13T19:23:32.567Z,58.80
2018-01-13T19:26:03.910Z,60.02
2018-01-13T19:28:35.132Z,60.79
2018-01-13T19:31:06.320Z,61.13
2018-01-13T19:33:37.538Z,61.33
2018-01-13T19:36:08.703Z,61.80
2018-01-13T19:38:39.744Z,62.55
2018-01-13T19:41:10.997Z,62.94
2018-01-13T19:43:42.348Z,63.44
2018-01-13T19:46:13.432Z,63.38
2018-01-13T19:48:44.644Z,63.75
2018-01-13T19:51:15.765Z,64.03
2018-01-13T19:53:46.881Z,63.59
2018-01-13T19:56:17.953Z,63.40
2018-01-13T19:58:49.231Z,63.33
2018-01-13T20:01:20.823Z,63.07
2018-01-13T20:03:51.977Z,62.76
2018-01-13T20:06:23.183Z,62.57
2018-01-13T20:08:54.301Z,62.22
2018-01-13T20:11:25.479Z,61.66
2018-01-13T20:13:56.628Z,61.19
2018-01-13T20:16:27.976Z,60.68
2018-01-13T20:18:59.209Z,60.34
2018-01-13T20:21:30.340Z,59.69
2018-01-13T20:24:01.412Z,59.50
2018-01-13T20:26:32.771Z,59.01
2018-01-13T20:29:03.908Z,58.85
2018-01-13T20:31:35.002Z,58.89
2018-01-13T20:34:06.106Z,58.47
2018-01-13T20:36:37.358Z,57.67
2018-01-13T20:39:08.448Z,56.93
2018-01-13T20:41:39.560Z,57.36
2018-01-13T20:44:10.659Z,57.70
2018-01-13T20:46:42.047Z,56.95
2018-01-13T20:49:13.193Z,56.80
2018-01-13T20:51:44.360Z,57.58
2018-01-13T20:54:15.471Z,57.42
2018-01-13T20:56:46.838Z,56.79
2018-01-13T20:59:17.943Z,56.08
2018-01-13T21:01:49.084Z,56.45
2018-01-13T21:04:20.150Z,56.64
2018-01-13T21:06:51.276Z,56.65
2018-01-13T21:09:22.575Z,56.36
2018-01-13T21:11:53.925Z,56.30
2018-01-13T21:14:25.706Z,56.07
2018-01-13T21:16:56.795Z,55.99
2018-01-13T21:19:27.929Z,55.91
2018-01-13T21:21:59.002Z,55.75
2018-01-13T21:24:30.174Z,56.44
2018-01-13T21:27:01.239Z,57.18
2018-01-13T21:29:32.537Z,57.07
2018-01-13T21:32:03.921Z,56.98
2018-01-13T21:34:35.048Z,56.89
2018-01-13T21:37:06.078Z,56.66
2018-01-13T21:39:37.210Z,56.61
2018-01-13T21:42:08.296Z,56.23
2018-01-13T21:44:39.385Z,56.07
2018-01-13T21:47:10.597Z,56.22
2018-01-13T21:49:41.659Z,56.08
2018-01-13T21:52:12.789Z,55.97
2018-01-13T21:54:43.874Z,56.03
2018-01-13T21:57:15.045Z,55.96
2018-01-13T21:59:46.121Z,56.14
2018-01-13T22:02:17.377Z,56.30
2018-01-13T22:04:49.318Z,56.15
2018-01-13T22:07:20.595Z,55.96
2018-01-13T22:09:51.943Z,56.06
2018-01-13T22:12:23.197Z,55.96
2018-01-13T22:14:54.479Z,55.83
2018-01-13T22:17:25.546Z,55.69
2018-01-13T22:19:56.736Z,55.89
2018-01-13T22:22:27.988Z,56.16
2018-01-13T22:24:59.105Z,56.05
2018-01-13T22:27:30.199Z,55.91
2018-01-13T22:30:01.254Z,56.15
2018-01-13T22:32:32.472Z,55.79
2018-01-13T22:35:03.589Z,55.55
2018-01-13T22:37:35.490Z,55.28
2018-01-13T22:40:06.833Z,55.29
2018-01-13T22:42:38.067Z,55.16
2018-01-13T22:45:10.045Z,55.28
2018-01-13T22:47:41.146Z,55.80
2018-01-13T22:50:12.306Z,55.87
2018-01-13T22:52:43.592Z,55.61
2018-01-13T22:55:15.416Z,55.69
2018-01-13T22:57:46.604Z,55.62
2018-01-13T23:00:17.741Z,55.12
2018-01-13T23:02:48.870Z,55.10
2018-01-13T23:05:20.144Z,55.04
2018-01-13T23:07:51.264Z,54.89
2018-01-13T23:10:22.441Z,54.57
2018-01-13T23:12:53.676Z,54.60
2018-01-13T23:15:24.950Z,54.25
2018-01-13T23:17:56.802Z,54.34
2018-01-13T23:20:27.938Z,54.21
2018-01-13T23:22:58.988Z,54.26
2018-01-13T23:25:30.346Z,54.36
2018-01-13T23:28:01.433Z,54.54
2018-01-13T23:30:32.740Z,54.43
2018-01-13T23:33:03.816Z,54.72
2018-01-13T23:35:35.034Z,56.31
2018-01-13T23:38:06.183Z,57.82
2018-01-13T23:40:37.533Z,58.13
2018-01-13T23:43:08.784Z,57.57
2018-01-13T23:45:39.881Z,57.30
2018-01-13T23:48:10.987Z,57.91
2018-01-13T23:50:42.217Z,58.21
2018-01-13T23:53:13.330Z,58.03
2018-01-13T23:55:44.518Z,58.72
2018-01-13T23:58:16.241Z,58.73
